createdAt,value
2023-04-13T00:03:33.394Z,7.80
2023-04-13T00:08:36.261Z,7.90
2023-04-13T00:13:43.105Z,7.80
2023-04-13T00:18:45.261Z,7.80
2023-04-13T00:23:47.474Z,7.80
2023-04-13T00:28:49.408Z,7.70
2023-04-13T00:33:51.477Z,7.70
2023-04-13T00:38:54.527Z,7.70
2023-04-13T00:43:56.542Z,7.60
2023-04-13T00:49:01.820Z,7.70
2023-04-13T00:54:04.329Z,7.60
2023-04-13T00:59:07.612Z,7.60
2023-04-13T01:04:09.443Z,7.60
2023-04-13T01:09:25.730Z,7.50
2023-04-13T01:14:37.749Z,7.50
2023-04-13T01:20:09.630Z,7.50
2023-04-13T01:25:36.884Z,7.60
2023-04-13T01:30:40.310Z,7.50
2023-04-13T01:35:43.668Z,7.50
2023-04-13T01:40:46.290Z,7.50
2023-04-13T01:46:11.404Z,7.50
2023-04-13T01:51:19.451Z,7.50
2023-04-13T01:56:23.169Z,7.40
2023-04-13T02:01:25.916Z,7.50
2023-04-13T02:06:27.877Z,7.40
2023-04-13T02:11:29.661Z,7.50
2023-04-13T02:16:32.340Z,7.60
2023-04-13T02:21:35.195Z,7.50
2023-04-13T02:26:37.764Z,7.40
2023-04-13T02:31:45.974Z,7.60
2023-04-13T02:36:48.682Z,7.50
2023-04-13T02:41:50.416Z,7.50
2023-04-13T02:46:52.700Z,7.50
2023-04-13T02:51:55.021Z,7.50
2023-04-13T02:56:56.774Z,7.50
2023-04-13T03:01:58.772Z,7.40
2023-04-13T03:07:05.175Z,7.30
2023-04-13T03:12:10.401Z,7.30
2023-04-13T03:17:12.726Z,7.10
2023-04-13T03:22:14.740Z,7.20
2023-04-13T03:27:17.343Z,7.00
2023-04-13T03:32:19.184Z,7.10
2023-04-13T03:37:21.192Z,7.00
2023-04-13T03:42:22.932Z,6.90
2023-04-13T03:47:25.064Z,6.90
2023-04-13T03:52:27.043Z,6.90
2023-04-13T03:57:29.924Z,6.80
2023-04-13T04:02:31.802Z,6.80
2023-04-13T04:07:33.723Z,6.80
2023-04-13T04:12:36.165Z,6.70
2023-04-13T04:17:39.932Z,6.80
2023-04-13T04:22:44.927Z,6.70
2023-04-13T04:27:47.157Z,6.70
2023-04-13T04:32:49.154Z,6.70
2023-04-13T04:37:50.933Z,6.80
2023-04-13T04:42:52.687Z,6.80
2023-04-13T04:47:57.620Z,6.80
2023-04-13T04:52:59.470Z,6.80
2023-04-13T04:58:01.216Z,6.90
2023-04-13T05:03:03.380Z,6.90
2023-04-13T05:08:06.108Z,7.00
2023-04-13T05:13:08.994Z,7.00
2023-04-13T05:18:13.088Z,7.10
2023-04-13T05:23:14.995Z,7.10
2023-04-13T05:28:16.734Z,7.20
2023-04-13T05:33:18.548Z,7.20
2023-04-13T05:38:20.303Z,7.30
2023-04-13T05:43:23.831Z,7.40
2023-04-13T05:48:26.553Z,7.50
2023-04-13T05:53:28.500Z,7.50
2023-04-13T05:58:30.365Z,7.60
2023-04-13T06:03:32.745Z,7.70
2023-04-13T06:08:35.000Z,7.70
2023-04-13T06:13:36.928Z,7.90
2023-04-13T06:18:38.687Z,7.90
2023-04-13T06:23:40.444Z,8.00
2023-04-13T06:28:42.911Z,8.00
2023-04-13T06:33:44.656Z,8.10
2023-04-13T06:38:46.521Z,8.00
2023-04-13T06:43:48.681Z,8.30
2023-04-13T06:48:50.586Z,8.30
2023-04-13T06:53:53.729Z,8.40
2023-04-13T06:59:02.048Z,8.50
2023-04-13T07:04:07.003Z,8.60
2023-04-13T07:09:08.903Z,8.50
2023-04-13T07:14:10.687Z,8.70
2023-04-13T07:19:12.662Z,8.60
2023-04-13T07:24:14.433Z,8.70
2023-04-13T07:29:16.729Z,8.80
2023-04-13T07:34:19.226Z,8.90
2023-04-13T07:39:21.122Z,9.00
2023-04-13T07:44:22.871Z,9.10
2023-04-13T07:49:24.648Z,9.10
2023-04-13T07:54:26.457Z,9.30
2023-04-13T07:59:29.421Z,9.50
2023-04-13T08:04:32.151Z,9.50
2023-04-13T08:09:40.212Z,9.50
2023-04-13T08:14:42.045Z,9.70
2023-04-13T08:19:43.801Z,9.90
2023-04-13T08:24:45.931Z,10.00
2023-04-13T08:29:47.725Z,10.00
2023-04-13T08:34:49.499Z,9.90
2023-04-13T08:39:56.639Z,9.90
2023-04-13T08:44:59.444Z,9.80
2023-04-13T08:50:02.225Z,9.90
2023-04-13T08:55:06.028Z,10.00
2023-04-13T09:00:16.199Z,10.10
2023-04-13T09:05:21.055Z,10.10
2023-04-13T09:10:23.700Z,10.10
2023-04-13T09:15:25.891Z,9.80
2023-04-13T09:20:27.713Z,10.30
2023-04-13T09:25:29.693Z,10.60
2023-04-13T09:30:31.493Z,10.50
2023-04-13T09:35:34.486Z,10.40
2023-04-13T09:40:41.254Z,10.20
2023-04-13T09:45:46.493Z,10.60
2023-04-13T09:51:06.767Z,11.00
2023-04-13T09:56:09.015Z,11.00
2023-04-13T10:01:11.049Z,10.80
2023-04-13T10:06:12.996Z,11.10
2023-04-13T10:11:15.691Z,10.80
2023-04-13T10:16:45.193Z,10.80
2023-04-13T10:21:51.762Z,11.40
2023-04-13T10:27:00.315Z,11.70
2023-04-13T10:32:05.370Z,12.20
2023-04-13T10:37:20.037Z,11.70
2023-04-13T10:42:21.803Z,11.90
2023-04-13T10:47:26.586Z,11.70
2023-04-13T10:52:30.609Z,12.20
2023-04-13T10:57:35.129Z,12.00
2023-04-13T11:02:37.184Z,11.60
2023-04-13T11:07:39.114Z,11.30
2023-04-13T11:12:49.646Z,11.70
2023-04-13T11:18:02.348Z,12.00
2023-04-13T11:23:15.365Z,12.50
2023-04-13T11:28:17.150Z,12.90
2023-04-13T11:33:24.825Z,12.60
2023-04-13T11:38:27.708Z,13.20
2023-04-13T11:43:29.867Z,13.00
2023-04-13T11:48:32.687Z,13.00
2023-04-13T11:53:36.487Z,13.30
2023-04-13T11:58:39.647Z,13.10
2023-04-13T12:03:53.380Z,13.20
2023-04-13T12:09:10.713Z,13.50
2023-04-13T12:19:28.026Z,13.50
2023-04-13T12:24:38.155Z,13.40
2023-04-13T12:29:41.026Z,13.30
2023-04-13T12:34:43.902Z,14.20
2023-04-13T12:39:45.676Z,13.10
2023-04-13T12:44:47.565Z,13.00
2023-04-13T12:49:49.399Z,12.90
2023-04-13T12:54:51.344Z,13.40
2023-04-13T12:59:53.167Z,13.60
2023-04-13T13:04:59.221Z,14.80
2023-04-13T13:10:01.972Z,14.40
2023-04-13T13:15:05.896Z,13.90
2023-04-13T13:20:09.702Z,14.30
2023-04-13T13:25:11.548Z,13.90
2023-04-13T13:30:14.343Z,13.60
2023-04-13T13:35:16.837Z,14.50
2023-04-13T13:40:18.659Z,15.20
2023-04-13T13:45:24.069Z,15.30
2023-04-13T13:50:25.986Z,16.30
2023-04-13T13:55:28.196Z,15.20
2023-04-13T14:00:30.054Z,15.90
2023-04-13T14:05:32.271Z,15.70
2023-04-13T14:10:35.692Z,15.40
2023-04-13T14:15:37.533Z,14.90
2023-04-13T14:20:39.916Z,14.50
2023-04-13T14:25:42.539Z,14.90
2023-04-13T14:30:45.192Z,14.70
2023-04-13T14:35:46.956Z,15.90
2023-04-13T14:40:49.011Z,16.60
2023-04-13T14:45:58.157Z,16.60
2023-04-13T14:51:00.170Z,16.90
2023-04-13T14:56:02.030Z,17.10
2023-04-13T15:01:04.762Z,16.50
2023-04-13T15:06:08.294Z,15.90
2023-04-13T15:11:10.243Z,15.10
2023-04-13T15:16:12.885Z,15.20
2023-04-13T15:21:14.793Z,15.00
2023-04-13T15:26:18.217Z,14.80
2023-04-13T15:31:22.163Z,14.50
2023-04-13T15:36:23.993Z,14.10
2023-04-13T15:41:27.424Z,13.90
2023-04-13T15:46:29.925Z,14.10
2023-04-13T15:51:32.266Z,14.00
2023-04-13T15:56:34.204Z,13.30
2023-04-13T16:01:49.774Z,13.30
2023-04-13T16:07:05.042Z,13.30
2023-04-13T16:12:13.849Z,14.20
2023-04-13T16:17:16.060Z,14.10
2023-04-13T16:22:18.096Z,13.80
2023-04-13T16:27:19.850Z,13.50
2023-04-13T16:32:21.610Z,13.60
2023-04-13T16:37:23.572Z,14.10
2023-04-13T16:42:25.489Z,13.30
2023-04-13T16:47:27.300Z,13.20
2023-04-13T16:52:29.081Z,12.90
2023-04-13T16:57:31.057Z,12.80
2023-04-13T17:02:38.108Z,12.70
2023-04-13T17:07:42.977Z,12.90
2023-04-13T17:12:44.815Z,12.90
2023-04-13T17:17:46.682Z,13.00
2023-04-13T17:22:48.472Z,13.30
2023-04-13T17:27:52.745Z,12.80
2023-04-13T17:32:55.131Z,12.60
2023-04-13T17:37:56.861Z,12.70
2023-04-13T17:42:58.663Z,12.60
2023-04-13T17:48:00.419Z,12.20
2023-04-13T17:53:04.166Z,12.00
2023-04-13T17:58:06.096Z,12.00
2023-04-13T18:03:09.359Z,12.00
2023-04-13T18:08:11.444Z,11.90
2023-04-13T18:13:13.185Z,11.80
2023-04-13T18:18:14.976Z,11.60
2023-04-13T18:23:16.731Z,11.50
2023-04-13T18:28:18.775Z,11.40
2023-04-13T18:33:20.568Z,11.30
2023-04-13T18:38:23.493Z,11.30
2023-04-13T18:43:26.428Z,11.10
2023-04-13T18:48:28.237Z,11.00
2023-04-13T18:53:30.162Z,10.90
2023-04-13T18:58:31.977Z,10.80
2023-04-13T19:03:34.098Z,10.70
2023-04-13T19:08:35.972Z,10.60
2023-04-13T19:13:40.641Z,10.60
2023-04-13T19:18:42.606Z,10.50
2023-04-13T19:23:44.594Z,10.40
2023-04-13T19:28:48.210Z,10.40
2023-04-13T19:33:51.720Z,10.30
2023-04-13T19:38:53.599Z,10.20
2023-04-13T19:43:56.423Z,10.10
2023-04-13T19:48:59.400Z,10.00
2023-04-13T19:54:02.899Z,9.90
2023-04-13T19:59:06.166Z,9.90
2023-04-13T20:04:09.072Z,9.80
2023-04-13T20:09:12.644Z,9.80
2023-04-13T20:14:15.813Z,9.80
2023-04-13T20:19:17.593Z,9.70
2023-04-13T20:24:19.356Z,9.60
2023-04-13T20:29:22.729Z,9.60
2023-04-13T20:34:27.640Z,9.50
2023-04-13T20:39:30.123Z,9.60
2023-04-13T20:44:38.144Z,9.50
2023-04-13T20:49:47.116Z,9.40
2023-04-13T20:54:49.075Z,9.30
2023-04-13T20:59:52.102Z,9.20
2023-04-13T21:04:54.048Z,9.20
2023-04-13T21:09:56.897Z,9.10
2023-04-13T21:14:58.733Z,9.00
2023-04-13T21:20:01.296Z,9.00
2023-04-13T21:25:04.849Z,8.90
2023-04-13T21:30:07.237Z,8.80
2023-04-13T21:35:09.459Z,8.90
2023-04-13T21:40:11.404Z,8.80
2023-04-13T21:45:13.645Z,8.70
2023-04-13T21:50:15.784Z,8.70
2023-04-13T21:55:20.587Z,8.60
2023-04-13T22:00:22.508Z,8.70
2023-04-13T22:05:24.269Z,8.60
2023-04-13T22:10:26.073Z,8.60
2023-04-13T22:15:27.857Z,8.50
2023-04-13T22:20:29.639Z,8.40
2023-04-13T22:25:31.421Z,8.20
2023-04-13T22:30:33.547Z,8.30
2023-04-13T22:35:35.771Z,8.20
2023-04-13T22:40:39.082Z,8.30
2023-04-13T22:45:41.544Z,8.20
2023-04-13T22:50:43.419Z,8.20
2023-04-13T22:55:45.238Z,8.20
2023-04-13T23:00:47.024Z,8.00
2023-04-13T23:05:48.890Z,8.00
2023-04-13T23:10:53.145Z,8.00
2023-04-13T23:16:00.803Z,8.00
2023-04-13T23:21:10.296Z,8.00
2023-04-13T23:26:12.142Z,8.00
2023-04-13T23:31:14.048Z,7.90
2023-04-13T23:36:16.471Z,7.90
2023-04-13T23:41:18.322Z,7.80
2023-04-13T23:46:20.317Z,7.80
2023-04-13T23:51:22.540Z,7.60
2023-04-13T23:56:24.289Z,7.60
